Terminal Aerodrome Forecast
Issued by NWS

Home | Current Version | Previous Version | Text Only | Print | Product List | Glossary On
Versions: 1 2 3 4 5 6 7 8 9 10 11 12 13 14 15 16
000
FTUS42 KTBW 012121 AAB
TAFLAL
TAF AMD
KLAL 012121Z 0121/0218 25007KT P6SM VCTS FEW010 SCT020CB BKN035
      TEMPO 0121/0122 4SM RA SCT004 BKN008 OVC040
     FM012300 21007KT P6SM VCTS SCT025CB BKN090 BKN250
     FM020000 22006KT P6SM VCTS SCT025CB BKN150
     FM020300 VRB03KT P6SM SCT020 BKN150
     FM021200 18004KT P6SM VCTS SCT045CB BKN150
     FM021500 21008KT P6SM VCTS SCT020CB BKN120=

USA.gov is the U.S. government's official web portal to all federal, state and local government web resources and services.